createdAt,value
2022-09-15T04:01:19.754Z,11.20
2022-09-15T04:03:51.388Z,12.60
2022-09-15T04:06:22.422Z,8.90
2022-09-15T04:08:53.019Z,12.30
2022-09-15T04:11:23.265Z,11.90
2022-09-15T04:13:53.893Z,11.90
2022-09-15T04:16:25.232Z,17.60
2022-09-15T04:18:55.704Z,16.00
2022-09-15T04:21:27.284Z,21.20
2022-09-15T04:23:56.710Z,19.50
2022-09-15T04:26:33.544Z,17.40
2022-09-15T04:29:05.091Z,15.20
2022-09-15T04:31:34.964Z,14.30
2022-09-15T04:34:05.070Z,13.00
2022-09-15T04:36:34.031Z,14.00
2022-09-15T04:39:03.133Z,13.70
2022-09-15T04:41:34.194Z,12.40
2022-09-15T04:44:03.728Z,13.80
2022-09-15T04:46:33.040Z,14.00
2022-09-15T04:49:02.436Z,18.30
2022-09-15T04:51:32.110Z,24.80
2022-09-15T04:54:01.910Z,23.90
2022-09-15T04:56:31.424Z,30.10
2022-09-15T04:59:03.873Z,30.90
2022-09-15T05:01:35.631Z,28.80
2022-09-15T05:04:05.171Z,28.20
2022-09-15T05:06:36.686Z,26.30
2022-09-15T05:09:10.488Z,22.70
2022-09-15T05:11:40.898Z,23.00
2022-09-15T05:14:12.052Z,23.70
2022-09-15T05:16:41.169Z,16.30
2022-09-15T05:19:11.199Z,14.40
2022-09-15T05:21:40.922Z,13.10
2022-09-15T05:24:11.204Z,12.80
2022-09-15T05:26:40.036Z,13.30
2022-09-15T05:29:09.155Z,23.10
2022-09-15T05:31:38.305Z,13.10
2022-09-15T05:34:07.882Z,13.60
2022-09-15T05:36:36.406Z,12.10
2022-09-15T05:39:05.719Z,13.80
2022-09-15T05:41:35.121Z,12.90
2022-09-15T05:44:04.407Z,15.10
2022-09-15T05:46:33.540Z,14.60
2022-09-15T05:49:02.868Z,13.90
2022-09-15T05:51:32.155Z,13.70
2022-09-15T05:54:01.439Z,11.40
2022-09-15T05:56:30.037Z,11.20
2022-09-15T05:58:59.033Z,10.70
2022-09-15T06:01:30.524Z,9.70
2022-09-15T06:03:59.941Z,10.10
2022-09-15T06:06:32.452Z,13.90
2022-09-15T06:09:02.325Z,13.80
2022-09-15T06:11:34.489Z,9.10
2022-09-15T06:14:05.294Z,7.90
2022-09-15T06:16:36.074Z,10.20
2022-09-15T06:19:05.715Z,9.50
2022-09-15T06:21:35.800Z,8.60
2022-09-15T06:24:06.837Z,7.80
2022-09-15T06:26:36.245Z,6.40
2022-09-15T06:29:06.387Z,7.60
2022-09-15T06:31:37.267Z,10.50
2022-09-15T06:36:54.435Z,11.10
2022-09-15T06:39:23.547Z,11.00
2022-09-15T06:42:02.389Z,9.60
2022-09-15T06:44:33.012Z,9.20
2022-09-15T06:47:03.036Z,10.90
2022-09-15T06:49:32.189Z,10.20
2022-09-15T06:52:03.114Z,7.20
2022-09-15T06:54:32.503Z,7.90
2022-09-15T06:57:01.460Z,10.20
2022-09-15T06:59:30.725Z,12.10
2022-09-15T07:02:07.530Z,7.00
2022-09-15T07:04:40.344Z,8.50
2022-09-15T07:07:09.112Z,10.30
2022-09-15T07:09:41.174Z,6.60
2022-09-15T07:12:10.416Z,7.10
2022-09-15T07:14:38.998Z,11.70
2022-09-15T07:17:08.052Z,9.40
2022-09-15T07:19:37.357Z,10.60
2022-09-15T07:22:06.309Z,6.00
2022-09-15T07:24:34.819Z,6.10
2022-09-15T07:27:04.014Z,9.40
2022-09-15T07:29:37.601Z,6.30
2022-09-15T07:32:06.663Z,6.60
2022-09-15T07:34:36.033Z,8.80
2022-09-15T07:37:05.362Z,4.90
2022-09-15T07:39:34.421Z,11.30
2022-09-15T07:42:02.971Z,5.70
2022-09-15T07:44:33.746Z,8.40
2022-09-15T07:47:02.705Z,6.90
2022-09-15T07:49:31.934Z,4.80
2022-09-15T07:52:01.142Z,4.20
2022-09-15T07:54:30.017Z,4.40
2022-09-15T07:56:59.133Z,3.80
2022-09-15T07:59:28.312Z,4.80
2022-09-15T08:01:57.564Z,8.00
2022-09-15T08:04:26.187Z,6.40
2022-09-15T08:06:55.074Z,6.70
2022-09-15T08:09:24.270Z,5.90
2022-09-15T08:11:53.215Z,6.70
2022-09-15T08:14:22.389Z,4.70
2022-09-15T08:16:51.040Z,3.50
2022-09-15T08:19:22.358Z,3.40
2022-09-15T08:21:51.480Z,5.00
2022-09-15T08:24:20.776Z,5.20
2022-09-15T08:26:52.088Z,4.60
2022-09-15T08:29:21.151Z,4.10
2022-09-15T08:31:50.144Z,5.20
2022-09-15T08:34:18.854Z,4.60
2022-09-15T08:36:47.975Z,5.20
2022-09-15T08:39:17.251Z,7.30
2022-09-15T08:41:49.155Z,3.50
2022-09-15T08:44:38.076Z,4.90
2022-09-15T08:47:19.522Z,2.60
2022-09-15T08:50:23.697Z,3.70
2022-09-15T08:53:17.850Z,2.80
2022-09-15T08:55:53.408Z,3.90
2022-09-15T08:58:26.815Z,2.30
2022-09-15T09:00:58.269Z,2.10
2022-09-15T09:03:33.226Z,3.40
2022-09-15T09:06:08.554Z,6.00
2022-09-15T09:09:01.908Z,3.50
2022-09-15T09:11:57.595Z,1.00
2022-09-15T09:14:37.985Z,1.90
2022-09-15T09:17:16.586Z,3.40
2022-09-15T09:20:13.164Z,2.80
2022-09-15T09:22:47.419Z,3.60
2022-09-15T09:25:27.587Z,1.50
2022-09-15T09:27:59.234Z,2.00
2022-09-15T09:30:31.991Z,1.50
2022-09-15T09:33:16.220Z,4.40
2022-09-15T09:35:49.295Z,7.10
2022-09-15T09:38:35.843Z,9.50
2022-09-15T09:41:18.399Z,3.10
2022-09-15T09:43:49.566Z,7.00
2022-09-15T09:46:21.793Z,6.90
2022-09-15T09:49:03.584Z,1.30
2022-09-15T09:51:54.580Z,6.10
2022-09-15T09:54:27.782Z,6.30
2022-09-15T09:57:18.475Z,5.70
2022-09-15T09:59:50.130Z,4.30
2022-09-15T10:02:29.722Z,3.50
2022-09-15T10:05:06.336Z,1.60
2022-09-15T10:07:41.310Z,2.90
2022-09-15T10:10:22.681Z,3.20
2022-09-15T10:12:57.309Z,7.40
2022-09-15T10:15:29.685Z,5.90
2022-09-15T10:17:59.173Z,6.50
2022-09-15T10:20:33.307Z,3.00
2022-09-15T10:23:23.246Z,2.60
2022-09-15T10:26:00.108Z,3.50
2022-09-15T10:28:30.350Z,1.20
2022-09-15T10:31:08.050Z,1.10
2022-09-15T10:33:40.556Z,3.30
2022-09-15T10:36:30.812Z,2.70
2022-09-15T10:39:49.402Z,1.70
2022-09-15T10:42:32.486Z,3.50
2022-09-15T10:45:23.083Z,9.40
2022-09-15T10:48:15.728Z,6.90
2022-09-15T10:50:55.458Z,2.50
2022-09-15T10:53:24.444Z,3.10
2022-09-15T10:56:02.947Z,5.40
2022-09-15T10:58:56.039Z,4.40
2022-09-15T11:01:31.307Z,8.20
2022-09-15T11:04:22.020Z,3.20
2022-09-15T11:07:29.061Z,4.90
2022-09-15T11:10:12.609Z,1.70
2022-09-15T11:12:58.767Z,2.40
2022-09-15T11:15:42.895Z,3.30
2022-09-15T11:18:24.090Z,1.40
2022-09-15T11:21:18.541Z,1.60
2022-09-15T11:23:50.012Z,3.20
2022-09-15T11:26:28.316Z,0.60
2022-09-15T11:29:04.944Z,2.30
2022-09-15T11:31:43.490Z,1.20
2022-09-15T11:34:24.322Z,1.40
2022-09-15T11:37:10.597Z,3.70
2022-09-15T11:39:50.375Z,2.90
2022-09-15T11:42:35.469Z,4.00
2022-09-15T11:45:07.233Z,3.50
2022-09-15T11:47:45.770Z,3.70
2022-09-15T11:50:33.755Z,4.40
2022-09-15T11:53:12.382Z,2.50
2022-09-15T11:55:41.477Z,6.70
2022-09-15T11:58:11.274Z,1.60
2022-09-15T12:00:51.597Z,1.30
2022-09-15T12:03:50.860Z,15.00
2022-09-15T12:06:58.046Z,16.20
2022-09-15T12:09:27.822Z,3.60
2022-09-15T12:12:06.331Z,2.50
2022-09-15T12:14:39.197Z,1.40
2022-09-15T12:17:16.743Z,3.20
2022-09-15T12:19:57.045Z,2.00
2022-09-15T12:22:32.530Z,2.20
2022-09-15T12:25:43.027Z,89.50
2022-09-15T12:28:24.675Z,17.80
2022-09-15T12:31:15.624Z,27.10
2022-09-15T12:33:44.163Z,4.80
2022-09-15T12:36:38.089Z,3.60
2022-09-15T12:39:21.131Z,4.40
2022-09-15T12:41:55.878Z,3.20
2022-09-15T12:44:33.881Z,1.80
2022-09-15T12:47:06.195Z,2.50
2022-09-15T12:49:44.054Z,2.90
2022-09-15T12:52:14.842Z,3.30
2022-09-15T12:54:45.798Z,7.70
2022-09-15T12:57:34.198Z,3.10
2022-09-15T13:00:23.206Z,4.00
2022-09-15T13:02:53.196Z,3.30
2022-09-15T13:05:49.248Z,3.10
2022-09-15T13:08:30.184Z,7.00
2022-09-15T13:11:05.126Z,5.30
2022-09-15T13:13:44.198Z,5.60
2022-09-15T13:16:22.502Z,4.30
2022-09-15T13:19:05.874Z,3.00
2022-09-15T13:21:38.063Z,2.10
2022-09-15T13:24:15.293Z,1.80
2022-09-15T13:26:48.125Z,2.80
2022-09-15T13:29:19.278Z,1.60
2022-09-15T13:32:02.998Z,2.80
2022-09-15T13:38:12.208Z,3.20
2022-09-15T13:40:58.717Z,6.70
2022-09-15T13:44:01.891Z,8.00
2022-09-15T13:46:39.758Z,3.80
2022-09-15T13:49:11.001Z,3.40
2022-09-15T13:51:44.508Z,5.40
2022-09-15T13:54:19.662Z,4.60
2022-09-15T13:56:53.759Z,3.20
2022-09-15T13:59:28.308Z,6.80
2022-09-15T14:01:59.798Z,13.20
2022-09-15T14:04:32.488Z,15.90
2022-09-15T14:07:02.831Z,13.50
2022-09-15T14:09:47.965Z,13.70
2022-09-15T14:12:19.524Z,3.80
2022-09-15T14:14:54.951Z,4.30
2022-09-15T14:17:28.312Z,3.70
2022-09-15T14:20:02.323Z,3.60
2022-09-15T14:22:36.173Z,3.40
2022-09-15T14:27:46.343Z,5.50
2022-09-15T14:30:36.372Z,6.60
2022-09-15T14:33:05.606Z,8.60
2022-09-15T14:35:37.584Z,9.90
2022-09-15T14:38:06.250Z,13.40
2022-09-15T14:40:38.338Z,17.70
2022-09-15T14:43:31.436Z,10.70
2022-09-15T14:46:15.409Z,12.60
2022-09-15T14:48:44.569Z,11.90
2022-09-15T14:51:26.542Z,10.70
2022-09-15T14:54:00.621Z,4.80
2022-09-15T14:56:35.720Z,8.60
2022-09-15T14:59:09.696Z,9.70
2022-09-15T15:02:18.771Z,7.10
2022-09-15T15:04:57.904Z,8.40
2022-09-15T15:07:32.390Z,5.20
2022-09-15T15:10:18.856Z,8.40
2022-09-15T15:12:51.566Z,2.50
2022-09-15T15:15:20.658Z,5.00
2022-09-15T15:17:55.135Z,8.00
2022-09-15T15:20:31.086Z,6.40
2022-09-15T15:23:10.683Z,7.00
2022-09-15T15:25:40.204Z,7.30
2022-09-15T15:28:36.147Z,12.10
2022-09-15T15:31:14.048Z,11.20
2022-09-15T15:34:06.164Z,9.70
2022-09-15T15:36:36.978Z,5.20
2022-09-15T15:39:08.605Z,18.30
2022-09-15T15:41:41.915Z,19.40
2022-09-15T15:44:17.633Z,22.20
2022-09-15T15:46:56.435Z,21.40
2022-09-15T15:49:29.676Z,24.80
2022-09-15T15:52:00.847Z,21.90
2022-09-15T15:54:30.125Z,24.00
2022-09-15T15:57:22.122Z,13.80
2022-09-15T15:59:58.865Z,48.60
2022-09-15T16:02:28.759Z,15.30
2022-09-15T16:04:58.315Z,19.90
2022-09-15T16:07:32.494Z,20.50
2022-09-15T16:10:03.956Z,18.80
2022-09-15T16:12:35.340Z,15.80
2022-09-15T16:15:15.452Z,4.20
2022-09-15T16:17:46.933Z,9.30
2022-09-15T16:20:17.832Z,2.10
2022-09-15T16:22:47.039Z,2.00
2022-09-15T16:25:33.603Z,3.80
2022-09-15T16:28:04.607Z,3.50
2022-09-15T16:30:35.097Z,7.00
2022-09-15T16:33:04.189Z,4.70
2022-09-15T16:35:50.268Z,1.60
2022-09-15T16:38:20.794Z,1.90
2022-09-15T16:40:51.525Z,4.10
2022-09-15T16:43:22.857Z,3.80
2022-09-15T16:45:53.223Z,2.50
2022-09-15T16:48:21.939Z,5.40
2022-09-15T16:51:16.887Z,4.00
2022-09-15T16:53:41.456Z,4.30
2022-09-15T16:56:13.015Z,5.10
2022-09-15T16:58:43.731Z,6.20
2022-09-15T17:01:21.889Z,8.70
2022-09-15T17:03:51.724Z,7.20
2022-09-15T17:06:22.516Z,7.70
2022-09-15T17:08:51.902Z,12.70
2022-09-15T17:11:24.162Z,14.20
2022-09-15T17:13:53.645Z,9.20
2022-09-15T17:16:22.714Z,7.50
2022-09-15T17:18:51.728Z,5.50
2022-09-15T17:21:20.674Z,6.60
2022-09-15T17:23:50.873Z,7.50
2022-09-15T17:26:30.470Z,9.30
2022-09-15T17:29:00.897Z,12.10
2022-09-15T17:31:30.032Z,6.00
2022-09-15T17:33:59.067Z,11.80
2022-09-15T17:36:27.729Z,13.10
2022-09-15T17:38:56.951Z,10.70
2022-09-15T17:41:26.054Z,7.70
2022-09-15T17:43:55.082Z,10.00
2022-09-15T17:46:24.287Z,17.40
2022-09-15T17:48:53.370Z,13.10
2022-09-15T17:51:22.432Z,12.10
2022-09-15T17:53:51.309Z,8.70
2022-09-15T17:56:20.138Z,11.40
2022-09-15T17:58:48.848Z,13.00
2022-09-15T18:01:18.039Z,20.00
2022-09-15T18:03:47.207Z,18.40
2022-09-15T18:06:15.714Z,24.40
2022-09-15T18:08:45.314Z,17.40
2022-09-15T18:11:15.750Z,19.40
2022-09-15T18:13:44.554Z,22.90
2022-09-15T18:16:15.273Z,25.00
2022-09-15T18:18:44.539Z,15.30
2022-09-15T18:21:28.183Z,11.90
2022-09-15T18:23:57.303Z,11.00
2022-09-15T18:26:26.805Z,6.20
2022-09-15T18:28:57.087Z,7.80
2022-09-15T18:31:26.863Z,7.50
2022-09-15T18:33:55.576Z,8.80
2022-09-15T18:36:25.086Z,8.60
2022-09-15T18:38:53.552Z,5.90
2022-09-15T18:41:22.408Z,6.00
2022-09-15T18:43:56.864Z,9.30
2022-09-15T18:46:27.841Z,22.80
2022-09-15T18:48:56.313Z,21.00
2022-09-15T18:51:40.875Z,22.30
2022-09-15T18:54:14.147Z,61.70
2022-09-15T18:56:43.312Z,55.60
2022-09-15T18:59:15.542Z,21.60
2022-09-15T19:01:46.712Z,13.80
2022-09-15T19:04:15.975Z,9.40
2022-09-15T19:06:45.937Z,11.30
2022-09-15T19:09:15.427Z,7.10
2022-09-15T19:11:44.405Z,9.40
2022-09-15T19:14:13.156Z,15.10
2022-09-15T19:16:57.175Z,10.50
2022-09-15T19:19:27.294Z,10.30
2022-09-15T19:21:56.546Z,8.40
2022-09-15T19:24:30.951Z,8.00
2022-09-15T19:27:00.860Z,9.00
2022-09-15T19:29:34.934Z,7.40
2022-09-15T19:32:07.075Z,6.10
2022-09-15T19:34:36.259Z,9.90
2022-09-15T19:37:10.797Z,6.90
2022-09-15T19:39:42.210Z,7.40
2022-09-15T19:42:12.320Z,39.50
2022-09-15T19:44:42.164Z,21.80
2022-09-15T19:47:11.349Z,19.70
2022-09-15T19:49:39.937Z,13.90
2022-09-15T19:52:09.180Z,15.10
2022-09-15T19:54:37.780Z,10.00
2022-09-15T19:57:06.229Z,6.40
2022-09-15T19:59:35.146Z,5.60
2022-09-15T20:02:03.683Z,10.30
2022-09-15T20:07:20.832Z,7.10
2022-09-15T20:09:53.608Z,10.40
2022-09-15T20:12:22.154Z,8.50
2022-09-15T20:14:50.997Z,12.70
2022-09-15T20:17:20.041Z,16.90
2022-09-15T20:19:48.749Z,26.60
2022-09-15T20:22:17.362Z,32.60
2022-09-15T20:24:46.423Z,31.40
2022-09-15T20:27:15.312Z,26.10
2022-09-15T20:29:44.707Z,24.90
2022-09-15T20:32:13.229Z,18.40
2022-09-15T20:34:42.340Z,11.70
2022-09-15T20:37:11.743Z,12.50
2022-09-15T20:39:42.130Z,12.30
2022-09-15T20:42:10.933Z,10.90
2022-09-15T20:44:39.462Z,14.40
2022-09-15T20:47:08.267Z,10.40
2022-09-15T20:49:37.791Z,7.80
2022-09-15T20:52:06.687Z,6.40
2022-09-15T20:54:35.688Z,6.00
2022-09-15T20:57:04.872Z,11.90
2022-09-15T20:59:33.284Z,23.80
2022-09-15T21:02:05.514Z,30.40
2022-09-15T21:04:34.133Z,31.90
2022-09-15T21:07:03.483Z,19.10
2022-09-15T21:09:32.120Z,18.60
2022-09-15T21:12:01.135Z,14.30
2022-09-15T21:14:31.143Z,12.10
2022-09-15T21:17:00.488Z,8.50
2022-09-15T21:19:29.899Z,9.90
2022-09-15T21:21:59.187Z,9.00
2022-09-15T21:24:28.233Z,7.30
2022-09-15T21:27:16.361Z,9.00
2022-09-15T21:29:45.899Z,11.70
2022-09-15T21:32:14.770Z,10.70
2022-09-15T21:34:44.226Z,10.00
2022-09-15T21:37:13.272Z,7.40
2022-09-15T21:39:41.659Z,7.30
2022-09-15T21:42:13.578Z,5.90
2022-09-15T21:44:43.107Z,5.20
2022-09-15T21:47:12.147Z,5.00
2022-09-15T21:49:41.053Z,7.40
2022-09-15T21:52:09.875Z,6.20
2022-09-15T21:54:39.804Z,7.40
2022-09-15T21:57:08.907Z,5.80
2022-09-15T21:59:38.072Z,5.60
2022-09-15T22:02:07.572Z,10.30
2022-09-15T22:04:36.322Z,9.70
2022-09-15T22:07:06.287Z,4.60
2022-09-15T22:09:35.276Z,6.10
2022-09-15T22:12:04.518Z,8.30
2022-09-15T22:14:32.962Z,10.90
2022-09-15T22:17:02.095Z,9.30
2022-09-15T22:19:31.352Z,6.00
2022-09-15T22:22:00.973Z,7.10
2022-09-15T22:24:30.694Z,7.40
2022-09-15T22:26:59.728Z,8.60
2022-09-15T22:29:29.792Z,6.00
2022-09-15T22:31:58.239Z,4.50
2022-09-15T22:34:29.462Z,9.80
2022-09-15T22:36:58.424Z,5.30
2022-09-15T22:39:50.263Z,5.20
2022-09-15T22:42:17.188Z,5.60
2022-09-15T22:44:47.413Z,5.30
2022-09-15T22:47:17.276Z,6.50
2022-09-15T22:49:46.788Z,7.20
2022-09-15T22:52:16.035Z,3.50
2022-09-15T22:54:46.551Z,4.50
2022-09-15T22:57:15.688Z,4.20
2022-09-15T22:59:45.078Z,6.60
